Time;durP1;ratioP1;P1;durP2;ratioP2;P2;SDS_P1;SDS_P2;PMS_P1;PMS_P2;Temp;Humidity;BMP_temperature;BMP_pressure;BME280_temperature;BME280_humidity;BME280_pressure;Samples;Min_cycle;Max_cycle;Signal;HPM_P1;HPM_P2
2022/02/01 00:00:41;;;;;;;20.73;9.05;;;6.40;99.30;;;;;;5005752;28;20238;-65
2022/02/01 00:03:09;;;;;;;21.95;8.68;;;6.40;99.40;;;;;;5039568;28;20612;-65
2022/02/01 00:05:43;;;;;;;13.95;7.85;;;6.40;99.60;;;;;;5021552;28;20574;-65
2022/02/01 00:08:17;;;;;;;18.23;7.32;;;6.30;99.60;;;;;;5011536;28;20231;-65
2022/02/01 00:10:53;;;;;;;16.30;8.52;;;6.40;99.80;;;;;;5015807;28;20232;-65
2022/02/01 00:13:30;;;;;;;16.27;7.70;;;6.40;99.90;;;;;;5021896;28;20263;-65
2022/02/01 00:19:05;;;;;;;21.75;8.45;;;6.40;99.90;;;;;;5009422;28;20589;-65
2022/02/01 00:35:41;;;;;;;20.75;7.13;;;6.40;99.90;;;;;;4990177;28;20231;-65
2022/02/01 00:38:18;;;;;;;18.75;8.32;;;6.40;99.90;;;;;;4983194;28;20257;-65
2022/02/01 00:40:53;;;;;;;21.35;7.60;;;6.40;99.90;;;;;;4995161;28;20231;-65
2022/02/01 00:43:19;;;;;;;25.77;8.82;;;6.40;99.90;;;;;;5031164;28;20731;-65
2022/02/01 00:45:46;;;;;;;13.18;6.10;;;6.40;99.90;;;;;;5028458;28;20219;-65
2022/02/01 00:48:13;;;;;;;16.10;7.75;;;6.40;99.90;;;;;;5024225;28;20544;-65
2022/02/01 00:50:40;;;;;;;10.90;6.63;;;6.40;99.90;;;;;;5038026;28;20226;-65
2022/02/01 00:53:07;;;;;;;19.52;7.63;;;6.40;99.90;;;;;;5036534;28;20226;-65
2022/02/01 00:55:36;;;;;;;17.70;7.40;;;6.40;99.90;;;;;;5040527;28;20231;-65
2022/02/01 00:58:03;;;;;;;18.15;7.22;;;6.40;99.90;;;;;;5045798;28;20222;-65
2022/02/01 01:00:29;;;;;;;18.45;7.07;;;6.40;99.90;;;;;;5029941;28;20222;-65
2022/02/01 01:02:56;;;;;;;13.77;7.40;;;6.40;99.90;;;;;;5042989;28;20233;-65
2022/02/01 01:05:23;;;;;;;19.52;7.75;;;6.50;99.90;;;;;;5043885;28;20233;-65
2022/02/01 01:07:50;;;;;;;15.93;6.60;;;6.40;99.90;;;;;;5024448;28;21062;-65
2022/02/01 01:10:17;;;;;;;17.80;7.20;;;6.40;99.90;;;;;;5015851;28;20239;-65
2022/02/01 01:12:54;;;;;;;11.02;6.95;;;6.40;99.90;;;;;;5013705;28;20222;-65
2022/02/01 01:15:25;;;;;;;15.35;9.90;;;6.40;99.90;;;;;;5017334;28;20233;-65
2022/02/01 01:45:21;;;;;;;20.55;7.47;;;6.40;99.90;;;;;;5035473;28;20292;-64
2022/02/01 01:53:19;;;;;;;19.85;9.93;;;6.40;99.90;;;;;;5037847;28;20229;-64
2022/02/01 01:55:49;;;;;;;14.32;9.43;;;6.40;99.90;;;;;;5037051;28;20301;-64
2022/02/01 01:58:16;;;;;;;16.52;8.85;;;6.40;99.90;;;;;;5034837;28;20240;-64
2022/02/01 02:01:05;;;;;;;14.63;9.73;;;6.40;99.90;;;;;;5033956;28;20300;-64
2022/02/01 02:03:32;;;;;;;12.68;7.88;;;6.40;99.90;;;;;;5028107;28;20265;-64
2022/02/01 02:05:59;;;;;;;16.73;9.13;;;6.40;99.90;;;;;;5023832;28;20231;-64
2022/02/01 02:08:26;;;;;;;16.20;7.97;;;6.30;99.90;;;;;;5019594;28;20226;-64
2022/02/01 02:10:59;;;;;;;18.30;8.23;;;6.40;99.90;;;;;;5031987;28;20225;-64
2022/02/01 02:16:11;;;;;;;16.50;9.65;;;6.40;99.90;;;;;;5023890;28;20228;-65
2022/02/01 02:18:38;;;;;;;14.88;8.55;;;6.30;99.90;;;;;;5032739;28;20233;-65
2022/02/01 02:21:07;;;;;;;19.95;9.73;;;6.30;99.90;;;;;;5026800;28;20222;-65
2022/02/01 02:23:34;;;;;;;17.23;8.57;;;6.30;99.90;;;;;;5027924;28;20222;-65
2022/02/01 02:26:06;;;;;;;16.85;9.25;;;6.30;99.90;;;;;;5028783;28;20226;-65
2022/02/01 02:28:33;;;;;;;12.82;8.35;;;6.30;99.90;;;;;;5029335;28;20272;-65
2022/02/01 02:31:02;;;;;;;12.85;8.02;;;6.30;99.90;;;;;;5032823;28;20752;-65
2022/02/01 02:33:29;;;;;;;15.00;8.13;;;6.30;99.90;;;;;;5019915;28;20245;-64
2022/02/01 02:36:03;;;;;;;18.70;8.75;;;6.40;99.90;;;;;;5028315;28;20571;-64
2022/02/01 02:38:36;;;;;;;13.65;8.07;;;6.40;99.90;;;;;;5030373;28;20237;-65
2022/02/01 02:41:22;;;;;;;20.10;9.80;;;6.40;99.90;;;;;;5028239;28;20227;-64
2022/02/01 02:46:38;;;;;;;11.70;8.48;;;6.40;99.90;;;;;;5014196;28;20721;-65
2022/02/01 02:49:06;;;;;;;18.48;8.70;;;6.50;99.90;;;;;;5031616;28;20867;-65
2022/02/01 02:51:33;;;;;;;15.50;8.90;;;6.50;99.90;;;;;;5031226;28;20316;-65
2022/02/01 02:54:04;;;;;;;18.23;8.43;;;6.50;99.90;;;;;;5031799;28;20232;-65
2022/02/01 02:56:31;;;;;;;16.20;10.88;;;6.50;99.90;;;;;;5024394;28;20223;-65
2022/02/01 02:58:58;;;;;;;15.63;8.15;;;6.50;99.90;;;;;;5031995;28;20229;-64
2022/02/01 03:01:25;;;;;;;21.67;9.32;;;6.50;99.90;;;;;;5031266;28;20714;-65
2022/02/01 03:03:52;;;;;;;13.82;7.90;;;6.50;99.90;;;;;;5032610;28;20222;-66
2022/02/01 03:06:18;;;;;;;19.08;10.18;;;6.50;99.90;;;;;;5033524;28;20296;-63
2022/02/01 03:08:46;;;;;;;18.42;10.25;;;6.50;99.90;;;;;;5032512;28;20215;-64
2022/02/01 03:11:15;;;;;;;16.23;8.63;;;6.50;99.90;;;;;;5033249;28;20233;-64
2022/02/01 03:13:48;;;;;;;15.05;9.00;;;6.50;99.90;;;;;;5032463;28;20238;-64
2022/02/01 03:16:29;;;;;;;13.95;8.55;;;6.50;99.90;;;;;;5033258;28;20222;-64
2022/02/01 03:21:43;;;;;;;18.65;9.60;;;6.50;99.90;;;;;;5032511;28;20378;-65
2022/02/01 03:24:10;;;;;;;18.77;10.18;;;6.50;99.90;;;;;;5032794;28;20226;-65
2022/02/01 03:26:38;;;;;;;14.88;9.35;;;6.50;99.90;;;;;;5032791;28;20222;-65
2022/02/01 03:29:05;;;;;;;20.10;9.57;;;6.60;99.90;;;;;;5033328;28;20230;-65
2022/02/01 03:31:32;;;;;;;14.75;10.35;;;6.70;99.90;;;;;;5032592;28;20227;-65
2022/02/01 03:33:58;;;;;;;17.55;10.73;;;6.70;99.90;;;;;;5032829;28;20990;-65
2022/02/01 03:36:25;;;;;;;18.23;11.85;;;6.70;99.90;;;;;;5032508;28;21003;-65
2022/02/01 03:38:52;;;;;;;13.95;9.65;;;6.70;99.90;;;;;;5032646;28;20309;-65
2022/02/01 03:41:20;;;;;;;18.33;11.23;;;6.70;99.90;;;;;;5032397;28;20226;-65
2022/02/01 03:43:48;;;;;;;19.92;10.63;;;6.80;99.90;;;;;;5022739;28;20676;-65
2022/02/01 03:46:15;;;;;;;13.85;9.63;;;6.80;99.90;;;;;;5034716;28;20309;-65
2022/02/01 03:48:42;;;;;;;16.30;10.90;;;6.80;99.90;;;;;;5041283;28;20219;-65
2022/02/01 03:51:09;;;;;;;22.33;13.52;;;6.90;99.90;;;;;;5042677;28;20687;-65
2022/02/01 03:53:36;;;;;;;19.92;12.65;;;6.90;99.90;;;;;;5036383;28;20233;-65
2022/02/01 03:56:04;;;;;;;18.25;11.48;;;6.90;99.90;;;;;;5041037;28;20226;-65
2022/02/01 03:58:31;;;;;;;15.98;10.70;;;6.90;99.90;;;;;;5039686;28;20226;-65
2022/02/01 04:01:00;;;;;;;16.10;10.82;;;7.00;99.90;;;;;;5031891;28;20632;-65
2022/02/01 04:03:27;;;;;;;19.77;12.32;;;7.00;99.90;;;;;;5028655;28;20234;-65
2022/02/01 04:05:54;;;;;;;21.08;12.48;;;7.00;99.90;;;;;;5031949;28;20242;-64
2022/02/01 04:08:23;;;;;;;20.30;12.32;;;7.00;99.90;;;;;;5032517;28;20231;-64
2022/02/01 04:10:50;;;;;;;28.00;15.30;;;7.00;99.90;;;;;;5030261;28;20219;-64
2022/02/01 04:13:18;;;;;;;15.93;13.00;;;7.00;99.90;;;;;;5022503;28;20222;-65
2022/02/01 04:15:45;;;;;;;23.25;15.13;;;6.90;99.90;;;;;;5017206;28;20227;-65
2022/02/01 04:18:13;;;;;;;16.83;12.27;;;6.90;99.90;;;;;;5017935;28;20244;-64
2022/02/01 04:20:40;;;;;;;25.20;14.90;;;6.90;99.90;;;;;;5014397;28;20238;-64
2022/02/01 04:23:07;;;;;;;23.63;13.73;;;6.90;99.90;;;;;;5019601;28;20229;-64
2022/02/01 04:25:34;;;;;;;26.63;14.95;;;6.90;99.90;;;;;;5017025;28;20238;-64
2022/02/01 04:28:01;;;;;;;18.88;11.88;;;6.90;99.90;;;;;;5024831;28;20227;-65
2022/02/01 04:30:28;;;;;;;17.92;11.98;;;6.90;99.90;;;;;;5021970;28;20233;-66
2022/02/01 04:32:57;;;;;;;18.17;11.48;;;6.90;99.90;;;;;;5023113;28;20230;-65
2022/02/01 04:35:27;;;;;;;19.73;12.18;;;7.00;99.90;;;;;;5021014;28;20226;-65
2022/02/01 04:37:55;;;;;;;27.95;22.65;;;7.00;99.90;;;;;;5019623;28;20231;-65
2022/02/01 04:40:23;;;;;;;23.60;11.98;;;6.90;99.90;;;;;;5021246;28;20258;-65
2022/02/01 04:42:51;;;;;;;34.17;21.75;;;6.90;99.90;;;;;;5025775;28;20673;-65
2022/02/01 04:45:20;;;;;;;21.08;14.10;;;6.90;99.90;;;;;;5031078;28;20313;-65
2022/02/01 04:47:48;;;;;;;17.67;13.27;;;6.90;99.90;;;;;;5016349;28;21065;-66
2022/02/01 04:50:18;;;;;;;26.33;13.45;;;6.90;99.90;;;;;;5023437;28;20234;-65
2022/02/01 04:52:49;;;;;;;13.55;10.77;;;6.90;99.90;;;;;;5019524;28;20227;-64
2022/02/01 04:55:17;;;;;;;20.65;13.18;;;7.00;99.90;;;;;;5024377;28;20241;-64
2022/02/01 04:57:53;;;;;;;27.98;16.15;;;7.00;99.90;;;;;;5022971;28;20303;-64
2022/02/01 05:00:25;;;;;;;16.58;12.10;;;6.90;99.90;;;;;;5021124;28;20227;-65
2022/02/01 05:02:53;;;;;;;25.55;15.35;;;6.90;99.90;;;;;;5021350;28;20233;-65
2022/02/01 05:05:26;;;;;;;24.27;12.80;;;6.90;99.90;;;;;;5019500;28;20238;-65
2022/02/01 05:07:54;;;;;;;39.38;21.50;;;6.90;99.90;;;;;;5031537;28;20267;-65
2022/02/01 05:10:21;;;;;;;19.83;11.57;;;6.90;99.90;;;;;;5018292;28;20231;-65
2022/02/01 05:12:47;;;;;;;19.98;12.55;;;6.80;99.90;;;;;;5023846;28;20227;-64
2022/02/01 05:15:15;;;;;;;22.27;14.35;;;6.80;99.90;;;;;;5029973;28;20228;-64
2022/02/01 05:17:51;;;;;;;19.77;14.30;;;6.80;99.90;;;;;;5023754;28;20214;-64
2022/02/01 05:20:25;;;;;;;21.92;13.18;;;6.80;99.90;;;;;;5031189;28;20241;-64
2022/02/01 05:22:54;;;;;;;19.67;12.55;;;6.80;99.90;;;;;;5016881;28;20222;-65
2022/02/01 05:25:27;;;;;;;26.00;17.05;;;6.80;99.90;;;;;;5026160;28;20599;-65
2022/02/01 05:27:57;;;;;;;18.83;11.85;;;6.80;99.90;;;;;;5027869;28;20229;-65
2022/02/01 05:30:24;;;;;;;24.27;11.43;;;6.80;99.90;;;;;;5018681;28;20227;-65
2022/02/01 05:32:51;;;;;;;20.35;14.40;;;6.90;99.90;;;;;;5022588;28;20305;-65
2022/02/01 05:35:18;;;;;;;16.42;11.40;;;6.80;99.90;;;;;;5028330;28;20230;-65
2022/02/01 05:37:45;;;;;;;16.02;12.35;;;6.80;99.90;;;;;;5028920;28;20215;-64
2022/02/01 05:40:14;;;;;;;21.50;14.73;;;6.70;99.90;;;;;;5021845;28;20332;-65
2022/02/01 05:42:45;;;;;;;14.13;11.02;;;6.70;99.90;;;;;;5028156;28;20284;-65
2022/02/01 05:45:12;;;;;;;19.80;11.95;;;6.80;99.90;;;;;;5022163;28;21006;-65
2022/02/01 05:47:39;;;;;;;16.08;10.55;;;6.70;99.90;;;;;;5029424;28;20693;-65
2022/02/01 05:50:07;;;;;;;12.55;10.73;;;6.70;99.90;;;;;;5018641;28;20233;-64
2022/02/01 05:52:34;;;;;;;10.82;9.05;;;6.60;99.90;;;;;;5023733;28;20222;-64
2022/02/01 05:55:01;;;;;;;14.45;10.73;;;6.60;99.90;;;;;;5023977;28;20221;-64
2022/02/01 05:57:29;;;;;;;18.15;10.63;;;6.50;99.90;;;;;;5023087;28;20272;-64
2022/02/01 05:59:56;;;;;;;11.38;9.60;;;6.40;99.90;;;;;;5023737;28;20227;-65
2022/02/01 06:02:23;;;;;;;18.13;9.85;;;6.30;99.90;;;;;;5024703;28;20217;-66
2022/02/01 06:04:50;;;;;;;16.25;10.45;;;6.30;99.90;;;;;;5034114;28;20219;-65
2022/02/01 06:07:17;;;;;;;13.32;10.68;;;6.30;99.90;;;;;;5021598;28;20245;-65
2022/02/01 06:09:44;;;;;;;15.27;11.45;;;6.30;99.90;;;;;;5030761;28;20221;-65
2022/02/01 06:12:11;;;;;;;16.38;10.05;;;6.30;99.90;;;;;;5031279;28;20233;-64
2022/02/01 06:14:39;;;;;;;13.90;10.65;;;6.30;99.90;;;;;;5029757;28;20214;-64
2022/02/01 06:17:07;;;;;;;16.50;10.57;;;6.30;99.90;;;;;;5020058;28;20217;-65
2022/02/01 06:19:36;;;;;;;15.95;9.43;;;6.30;99.90;;;;;;5023550;28;20227;-65
2022/02/01 06:22:03;;;;;;;17.92;10.70;;;6.20;99.90;;;;;;5026421;28;20350;-64
2022/02/01 06:24:31;;;;;;;16.50;11.13;;;6.30;99.90;;;;;;5014106;28;20222;-64
2022/02/01 06:26:58;;;;;;;18.33;11.15;;;6.20;99.90;;;;;;5027544;28;20242;-65
2022/02/01 06:29:25;;;;;;;12.80;10.30;;;6.20;99.90;;;;;;5025569;28;20225;-64
2022/02/01 06:31:54;;;;;;;17.30;10.90;;;6.20;99.90;;;;;;5020814;28;20237;-64
2022/02/01 06:34:21;;;;;;;18.30;12.30;;;6.20;99.90;;;;;;5022879;28;20233;-65
2022/02/01 06:36:47;;;;;;;15.23;10.63;;;6.20;99.90;;;;;;5021328;28;20230;-65
2022/02/01 06:39:14;;;;;;;13.07;9.48;;;6.20;99.90;;;;;;5022286;28;20231;-65
2022/02/01 06:41:41;;;;;;;16.23;11.25;;;6.20;99.90;;;;;;5027844;28;20230;-64
2022/02/01 06:44:08;;;;;;;19.38;12.13;;;6.30;99.90;;;;;;5026400;28;20230;-64
2022/02/01 06:46:36;;;;;;;16.60;10.00;;;6.30;99.90;;;;;;5033663;28;20242;-65
2022/02/01 06:49:09;;;;;;;15.48;10.40;;;6.30;99.90;;;;;;5033819;28;20230;-64
2022/02/01 06:51:36;;;;;;;16.77;10.18;;;6.30;99.90;;;;;;5034155;28;20225;-64
2022/02/01 06:54:04;;;;;;;18.38;12.10;;;6.30;99.90;;;;;;5034009;28;20230;-65
2022/02/01 06:56:32;;;;;;;16.65;10.30;;;6.30;99.90;;;;;;5034222;28;20217;-66
2022/02/01 06:59:00;;;;;;;14.10;10.00;;;6.30;99.90;;;;;;5033837;28;20694;-65
2022/02/01 07:01:28;;;;;;;19.88;10.73;;;6.30;99.90;;;;;;5034124;28;20230;-65
2022/02/01 07:03:55;;;;;;;17.02;10.40;;;6.30;99.90;;;;;;5033590;28;20217;-65
2022/02/01 07:06:24;;;;;;;16.50;9.85;;;6.30;99.90;;;;;;5033687;28;20226;-65
2022/02/01 07:08:52;;;;;;;17.02;9.70;;;6.30;99.90;;;;;;5034129;28;20222;-65
2022/02/01 07:11:21;;;;;;;13.27;8.90;;;6.30;99.90;;;;;;5033682;28;20236;-66
2022/02/01 07:13:48;;;;;;;12.50;8.15;;;6.30;99.90;;;;;;5033865;28;20226;-66
2022/02/01 07:16:16;;;;;;;12.20;8.20;;;6.30;99.90;;;;;;5033531;28;20619;-65
2022/02/01 07:18:43;;;;;;;12.73;10.07;;;6.40;99.90;;;;;;5033790;28;20225;-65
2022/02/01 07:21:10;;;;;;;14.88;9.32;;;6.40;99.90;;;;;;5033105;28;20237;-64
2022/02/01 07:23:39;;;;;;;16.85;8.93;;;6.40;99.90;;;;;;5033776;28;20336;-65
2022/02/01 07:26:09;;;;;;;13.73;7.93;;;6.50;99.90;;;;;;5033124;28;20305;-65
2022/02/01 07:28:37;;;;;;;10.85;7.95;;;6.50;99.90;;;;;;5033682;28;20264;-64
2022/02/01 07:31:10;;;;;;;14.20;9.00;;;6.40;99.90;;;;;;5033178;28;20231;-64
2022/02/01 07:33:38;;;;;;;16.17;9.10;;;6.40;99.90;;;;;;5033474;28;20218;-66
2022/02/01 07:36:06;;;;;;;11.52;7.38;;;6.40;99.90;;;;;;5033057;28;20605;-65
2022/02/01 07:38:33;;;;;;;13.98;9.60;;;6.40;99.90;;;;;;5033455;28;20214;-64
2022/02/01 07:41:02;;;;;;;10.57;7.80;;;6.50;99.90;;;;;;5032050;28;20320;-64
2022/02/01 07:43:31;;;;;;;13.90;8.10;;;6.50;99.90;;;;;;5033266;28;20232;-65
2022/02/01 07:46:00;;;;;;;11.88;8.35;;;6.50;99.90;;;;;;5032960;28;20626;-65
2022/02/01 07:48:27;;;;;;;15.55;8.30;;;6.50;99.90;;;;;;5033418;28;20228;-64
2022/02/01 07:50:54;;;;;;;14.02;9.15;;;6.50;99.90;;;;;;5033050;28;20228;-65
2022/02/01 07:53:21;;;;;;;11.45;7.90;;;6.50;99.90;;;;;;5032821;28;20691;-65
2022/02/01 07:55:48;;;;;;;11.63;7.43;;;6.60;99.90;;;;;;5033243;28;20229;-65
2022/02/01 07:58:16;;;;;;;14.95;7.15;;;6.60;99.90;;;;;;5032660;28;20241;-65
2022/02/01 08:00:43;;;;;;;9.60;7.63;;;6.60;99.90;;;;;;5033225;28;20240;-66
2022/02/01 08:03:12;;;;;;;13.40;7.53;;;6.60;99.90;;;;;;5032567;28;20237;-66
2022/02/01 08:05:39;;;;;;;12.68;6.47;;;6.50;99.90;;;;;;5033069;28;20245;-66
2022/02/01 08:08:07;;;;;;;14.68;7.18;;;6.50;99.90;;;;;;5032495;28;20236;-64
2022/02/01 08:10:40;;;;;;;9.30;6.43;;;6.60;99.90;;;;;;5032730;28;20284;-65
2022/02/01 08:18:51;;;;;;;9.07;5.40;;;6.70;99.90;;;;;;5032420;28;20226;-65
2022/02/01 08:21:24;;;;;;;9.63;4.80;;;6.70;99.90;;;;;;5032105;28;20630;-65
2022/02/01 08:23:51;;;;;;;11.30;4.80;;;6.80;99.90;;;;;;5032723;28;20301;-65
2022/02/01 08:26:18;;;;;;;8.80;5.25;;;6.80;99.90;;;;;;5032230;28;20226;-65
2022/02/01 08:28:45;;;;;;;13.70;6.90;;;6.80;99.90;;;;;;5032672;28;20274;-65
2022/02/01 08:31:15;;;;;;;12.90;5.70;;;6.80;99.90;;;;;;5032131;28;20225;-65
2022/02/01 08:33:42;;;;;;;9.68;4.95;;;6.90;99.90;;;;;;5032475;28;20231;-65
2022/02/01 08:36:09;;;;;;;15.50;5.50;;;6.90;99.90;;;;;;5032516;28;20700;-66
2022/02/01 08:38:36;;;;;;;12.02;4.55;;;6.90;99.90;;;;;;5032252;28;20232;-65
2022/02/01 08:41:03;;;;;;;11.43;7.22;;;6.90;99.90;;;;;;5032530;28;20301;-65
2022/02/01 08:43:31;;;;;;;8.57;4.13;;;6.90;99.90;;;;;;5032034;28;20238;-65
2022/02/01 08:45:58;;;;;;;11.68;4.45;;;7.00;99.90;;;;;;5032697;28;20280;-65
2022/02/01 08:48:26;;;;;;;11.73;5.63;;;7.00;99.90;;;;;;5032010;28;20240;-65
2022/02/01 08:50:53;;;;;;;15.10;7.15;;;7.00;99.90;;;;;;5032736;28;20573;-65
2022/02/01 08:53:23;;;;;;;9.77;6.18;;;7.00;99.90;;;;;;5036153;28;20233;-65
2022/02/01 08:56:02;;;;;;;17.48;5.07;;;7.00;99.90;;;;;;5036657;28;20226;-65
2022/02/01 08:58:30;;;;;;;8.35;4.10;;;7.10;99.90;;;;;;5036000;28;20230;-65
2022/02/01 09:00:57;;;;;;;12.32;5.40;;;7.10;99.90;;;;;;5036523;28;20226;-65
2022/02/01 09:03:27;;;;;;;9.90;5.10;;;7.10;99.90;;;;;;5035805;28;20229;-65
2022/02/01 09:05:54;;;;;;;13.50;5.25;;;7.10;99.90;;;;;;5036252;28;20221;-65
2022/02/01 09:08:22;;;;;;;10.95;5.53;;;7.10;99.90;;;;;;5035725;28;20230;-65
2022/02/01 09:10:49;;;;;;;15.50;6.30;;;7.10;99.90;;;;;;5036174;28;20226;-65
2022/02/01 09:13:16;;;;;;;10.73;7.25;;;7.20;99.90;;;;;;5035720;28;20582;-65
2022/02/01 09:15:43;;;;;;;13.20;7.43;;;7.30;99.90;;;;;;5036125;28;20222;-65
2022/02/01 09:18:10;;;;;;;14.40;8.50;;;7.30;99.90;;;;;;5036048;28;20259;-64
2022/02/01 09:20:38;;;;;;;11.23;5.70;;;7.30;99.90;;;;;;5035434;28;20222;-65
2022/02/01 09:23:05;;;;;;;9.50;5.13;;;7.40;99.90;;;;;;5036164;28;20577;-64
2022/02/01 09:25:32;;;;;;;9.80;3.88;;;7.50;99.90;;;;;;5035467;28;20681;-64
2022/02/01 09:27:59;;;;;;;16.08;5.35;;;7.50;99.90;;;;;;5035926;28;20226;-65
2022/02/01 09:30:26;;;;;;;12.10;4.78;;;7.60;99.90;;;;;;5035519;28;20235;-65
2022/02/01 09:32:53;;;;;;;9.20;5.50;;;7.60;99.90;;;;;;5035873;28;20595;-65
2022/02/01 09:35:20;;;;;;;12.65;7.00;;;7.60;99.90;;;;;;5035257;28;20219;-65
2022/02/01 09:37:49;;;;;;;11.77;4.50;;;7.60;99.90;;;;;;5035947;28;20230;-65
2022/02/01 09:40:16;;;;;;;8.93;4.60;;;7.60;99.90;;;;;;5035257;28;20297;-65
2022/02/01 09:42:43;;;;;;;9.20;5.70;;;7.60;99.90;;;;;;5035743;28;20227;-66
2022/02/01 09:45:11;;;;;;;5.55;3.80;;;7.60;99.90;;;;;;5035800;28;20246;-65
2022/02/01 09:47:43;;;;;;;10.77;8.23;;;7.60;99.90;;;;;;5034959;28;20223;-64
2022/02/01 09:50:10;;;;;;;10.35;6.57;;;7.60;99.90;;;;;;5035439;28;20246;-65
2022/02/01 09:52:39;;;;;;;10.32;5.30;;;7.60;99.90;;;;;;5035088;28;20851;-64
2022/02/01 09:55:09;;;;;;;12.48;4.40;;;7.60;99.90;;;;;;5035354;28;20233;-64
2022/02/01 09:57:37;;;;;;;8.40;4.38;;;7.60;99.90;;;;;;5034890;28;20223;-65
2022/02/01 10:00:13;;;;;;;10.43;3.78;;;7.50;99.90;;;;;;5035404;28;20278;-64
2022/02/01 10:02:42;;;;;;;9.73;4.47;;;7.60;99.90;;;;;;5033959;28;20283;-64
2022/02/01 10:05:11;;;;;;;8.15;3.25;;;7.50;99.90;;;;;;5035318;28;20236;-64
2022/02/01 10:07:51;;;;;;;9.32;3.67;;;7.60;99.90;;;;;;5034564;28;20245;-64
2022/02/01 10:10:20;;;;;;;9.10;3.63;;;7.60;99.90;;;;;;5034872;28;20232;-64
2022/02/01 10:12:58;;;;;;;9.90;5.15;;;7.70;99.90;;;;;;5035009;28;20234;-64
2022/02/01 10:15:26;;;;;;;5.10;2.80;;;7.70;99.90;;;;;;5034707;28;20221;-64
2022/02/01 10:18:00;;;;;;;11.82;3.70;;;7.70;99.90;;;;;;5035102;28;20221;-64
2022/02/01 10:20:36;;;;;;;18.25;3.90;;;7.70;99.90;;;;;;5034467;28;20313;-64
2022/02/01 10:23:20;;;;;;;9.02;4.50;;;7.80;99.90;;;;;;5034808;28;20226;-64
2022/02/01 10:26:04;;;;;;;8.43;4.10;;;7.80;99.90;;;;;;5034634;28;20993;-64
2022/02/01 10:28:46;;;;;;;15.65;4.47;;;7.80;99.90;;;;;;5034413;28;20630;-65
2022/02/01 10:31:15;;;;;;;9.13;4.80;;;7.90;99.90;;;;;;5034671;28;20239;-65
2022/02/01 10:36:36;;;;;;;15.82;5.45;;;7.80;99.90;;;;;;5034371;28;20246;-65
2022/02/01 10:39:04;;;;;;;7.82;3.47;;;7.80;99.90;;;;;;5034767;28;20558;-65
2022/02/01 10:41:32;;;;;;;8.05;4.10;;;7.80;99.90;;;;;;5034044;28;20249;-65
2022/02/01 10:43:59;;;;;;;6.93;3.58;;;7.90;99.90;;;;;;5034565;28;20224;-64
2022/02/01 10:46:26;;;;;;;6.65;3.45;;;7.90;99.90;;;;;;5034096;28;20226;-65
2022/02/01 10:48:54;;;;;;;15.30;5.35;;;7.90;99.90;;;;;;5042602;28;20231;-65
2022/02/01 10:51:22;;;;;;;12.77;5.28;;;7.80;99.90;;;;;;5034233;28;20709;-65
2022/02/01 10:53:51;;;;;;;8.98;4.63;;;7.80;99.90;;;;;;5034209;28;21356;-65
2022/02/01 10:56:20;;;;;;;9.80;5.00;;;7.80;99.90;;;;;;5034223;28;20234;-64
2022/02/01 10:58:50;;;;;;;10.40;4.78;;;7.90;99.90;;;;;;5033685;28;20219;-65
2022/02/01 11:01:17;;;;;;;9.27;4.93;;;7.90;99.90;;;;;;5034259;28;20222;-66
2022/02/01 11:03:46;;;;;;;11.35;4.55;;;7.90;99.90;;;;;;5033787;28;20225;-64
2022/02/01 11:06:14;;;;;;;7.03;3.20;;;8.00;99.90;;;;;;5034098;28;20225;-65
2022/02/01 11:08:42;;;;;;;13.77;4.20;;;8.00;99.90;;;;;;5033591;28;20256;-65
2022/02/01 11:11:16;;;;;;;7.72;3.38;;;8.00;99.90;;;;;;5033951;28;20223;-65
2022/02/01 11:13:46;;;;;;;14.57;3.95;;;8.00;99.90;;;;;;5033313;28;20233;-65
2022/02/01 11:16:21;;;;;;;13.15;3.60;;;8.00;99.90;;;;;;5034024;28;20235;-66
2022/02/01 11:18:56;;;;;;;8.45;4.30;;;7.90;99.90;;;;;;5033569;28;20573;-65
2022/02/01 11:21:24;;;;;;;11.80;4.05;;;7.90;99.90;;;;;;5033515;28;20230;-66
2022/02/01 11:23:55;;;;;;;10.05;3.80;;;7.90;99.90;;;;;;5033455;28;20293;-64
2022/02/01 11:26:26;;;;;;;10.38;5.82;;;7.90;99.90;;;;;;5033805;28;20326;-65
2022/02/01 11:31:58;;;;;;;13.10;4.78;;;8.00;99.90;;;;;;5033184;28;20223;-64
2022/02/01 11:34:27;;;;;;;19.33;4.07;;;8.00;99.90;;;;;;5033604;28;20231;-65
2022/02/01 11:36:59;;;;;;;9.23;6.05;;;8.00;99.90;;;;;;5033132;28;20231;-64
2022/02/01 11:39:27;;;;;;;7.20;3.88;;;8.10;99.90;;;;;;5033382;28;20224;-65
2022/02/01 11:41:54;;;;;;;16.85;6.25;;;8.10;99.90;;;;;;5033001;28;20228;-65
2022/02/01 11:44:24;;;;;;;9.43;4.28;;;8.10;99.90;;;;;;5033328;28;20241;-64
2022/02/01 11:47:08;;;;;;;10.10;3.85;;;8.10;99.90;;;;;;5032801;28;20257;-64
2022/02/01 11:49:36;;;;;;;10.43;4.50;;;8.10;99.90;;;;;;5032719;28;20222;-65
2022/02/01 11:52:07;;;;;;;9.63;6.30;;;8.10;99.90;;;;;;5033326;28;20590;-65
2022/02/01 11:54:34;;;;;;;6.65;4.20;;;8.10;99.90;;;;;;5019600;28;20221;-65
2022/02/01 11:57:11;;;;;;;9.07;4.05;;;8.20;99.90;;;;;;5021460;28;20217;-65
2022/02/01 11:59:38;;;;;;;7.28;3.00;;;8.20;99.90;;;;;;5017471;28;20234;-64
2022/02/01 12:02:07;;;;;;;8.55;4.22;;;8.20;99.90;;;;;;5022076;28;20251;-64
2022/02/01 12:04:42;;;;;;;13.48;3.33;;;8.30;99.90;;;;;;5021024;28;20223;-64
2022/02/01 12:07:09;;;;;;;9.40;3.60;;;8.30;99.90;;;;;;5031526;28;20251;-65
2022/02/01 12:09:40;;;;;;;6.32;3.20;;;8.30;99.90;;;;;;5021175;28;20236;-65
2022/02/01 12:12:08;;;;;;;14.07;4.43;;;8.40;99.90;;;;;;5013153;28;20573;-64
2022/02/01 12:14:35;;;;;;;7.47;4.72;;;8.40;99.90;;;;;;5024482;28;20216;-65
2022/02/01 12:17:01;;;;;;;5.55;4.40;;;8.40;99.90;;;;;;5018313;28;20235;-65
2022/02/01 12:19:37;;;;;;;9.30;5.18;;;8.40;99.90;;;;;;5016887;28;20220;-65
2022/02/01 12:22:11;;;;;;;16.17;4.38;;;8.40;99.90;;;;;;5022359;28;20244;-65
2022/02/01 12:24:38;;;;;;;9.95;3.97;;;8.50;99.90;;;;;;5026945;28;20228;-65
2022/02/01 12:27:05;;;;;;;10.10;3.75;;;8.40;99.90;;;;;;5020435;28;20235;-65
2022/02/01 12:29:32;;;;;;;9.00;3.17;;;8.30;99.90;;;;;;5024037;28;20219;-65
2022/02/01 12:32:06;;;;;;;12.15;4.05;;;8.40;99.90;;;;;;5031027;28;20319;-65
2022/02/01 12:34:34;;;;;;;9.90;4.18;;;8.40;99.90;;;;;;5030288;28;20226;-64
2022/02/01 12:37:01;;;;;;;7.18;3.70;;;8.30;99.90;;;;;;5029169;28;20223;-64
2022/02/01 12:39:32;;;;;;;15.40;4.60;;;8.30;99.90;;;;;;5032557;28;20254;-64
2022/02/01 12:42:03;;;;;;;7.50;3.28;;;8.20;99.90;;;;;;5031059;28;20307;-65
2022/02/01 12:47:22;;;;;;;5.63;2.67;;;8.30;99.90;;;;;;5020928;28;20225;-65
2022/02/01 12:49:53;;;;;;;10.45;4.35;;;8.30;99.90;;;;;;5018811;28;20901;-66
2022/02/01 12:52:21;;;;;;;7.43;3.42;;;8.20;99.90;;;;;;5015912;28;20223;-63
2022/02/01 12:54:49;;;;;;;3.40;2.50;;;8.20;99.90;;;;;;5031380;28;20580;-64
2022/02/01 12:57:18;;;;;;;6.18;3.15;;;8.10;99.90;;;;;;5015002;28;20685;-63
2022/02/01 12:59:47;;;;;;;13.40;3.60;;;8.20;99.90;;;;;;5012086;28;20227;-64
2022/02/01 13:02:16;;;;;;;7.30;2.88;;;8.10;99.90;;;;;;5019346;28;20345;-64
2022/02/01 13:04:43;;;;;;;8.07;2.80;;;8.00;99.90;;;;;;5026463;28;20226;-65
2022/02/01 13:07:26;;;;;;;5.45;2.65;;;8.00;99.90;;;;;;5026528;28;20583;-65
2022/02/01 13:13:00;;;;;;;5.55;2.47;;;7.90;99.90;;;;;;5027460;28;20703;-65
2022/02/01 13:15:32;;;;;;;6.63;2.88;;;7.80;99.90;;;;;;5020302;28;20221;-64
2022/02/01 13:18:24;;;;;;;14.80;3.20;;;7.70;99.90;;;;;;5025992;28;21396;-65
2022/02/01 13:20:58;;;;;;;10.43;5.40;;;7.60;99.90;;;;;;5026764;28;20253;-64
2022/02/01 13:23:35;;;;;;;14.15;6.80;;;7.50;99.90;;;;;;5029257;28;20988;-65
2022/02/01 13:26:08;;;;;;;7.43;3.75;;;7.40;99.90;;;;;;5027574;28;20234;-63
2022/02/01 13:28:35;;;;;;;6.30;2.60;;;7.40;99.90;;;;;;5019623;28;20250;-65
2022/02/01 13:31:06;;;;;;;5.93;2.30;;;7.30;99.90;;;;;;5017610;28;20226;-64
2022/02/01 13:33:35;;;;;;;8.25;2.95;;;7.30;99.90;;;;;;5027390;28;20290;-64
2022/02/01 13:36:03;;;;;;;8.43;2.55;;;7.20;99.90;;;;;;5035550;28;20233;-65
2022/02/01 13:38:31;;;;;;;7.88;3.53;;;7.20;99.90;;;;;;5024770;28;20222;-65
2022/02/01 13:40:58;;;;;;;5.03;3.55;;;7.20;99.90;;;;;;5026045;28;20265;-65
2022/02/01 13:43:26;;;;;;;13.98;7.95;;;7.20;99.90;;;;;;5023066;28;20224;-65
2022/02/01 13:45:55;;;;;;;8.60;5.55;;;7.20;99.90;;;;;;5028969;28;20230;-65
2022/02/01 13:48:24;;;;;;;8.27;4.18;;;7.20;99.90;;;;;;5031662;28;22056;-65
2022/02/01 13:50:52;;;;;;;7.85;3.22;;;7.20;99.90;;;;;;5029555;28;20233;-65
2022/02/01 13:53:20;;;;;;;5.75;2.95;;;7.10;99.90;;;;;;5017427;28;20708;-65
2022/02/01 13:55:58;;;;;;;5.82;3.60;;;7.00;99.90;;;;;;5025743;28;20277;-66
2022/02/01 13:58:26;;;;;;;9.65;4.40;;;7.10;99.90;;;;;;5031643;28;20217;-65
2022/02/01 14:00:55;;;;;;;8.32;3.20;;;7.00;99.90;;;;;;5022653;28;20220;-65
2022/02/01 14:03:34;;;;;;;9.05;5.97;;;7.00;99.90;;;;;;5024448;28;20758;-65
2022/02/01 14:06:10;;;;;;;8.35;3.58;;;7.00;99.90;;;;;;5024115;28;20653;-65
2022/02/01 14:08:48;;;;;;;6.25;3.20;;;6.90;99.90;;;;;;5028592;28;20543;-64
2022/02/01 14:28:20;;;;;;;7.40;6.32;;;6.50;99.90;;;;;;5015933;28;20230;-64